Time;durP1;ratioP1;P1;durP2;ratioP2;P2;SDS_P1;SDS_P2;PMS_P1;PMS_P2;Temp;Humidity;BMP_temperature;BMP_pressure;BME280_temperature;BME280_humidity;BME280_pressure;Samples;Min_cycle;Max_cycle;Signal;HPM_P1;HPM_P2
2022/05/24 00:01:39;;;;;;;0.25;0.25;;;14.20;99.90;;;;;;5008111;28;20054;-69
2022/05/24 00:04:05;;;;;;;0.00;0.00;;;14.10;99.90;;;;;;5007823;28;20062;-69
2022/05/24 00:06:32;;;;;;;0.00;0.00;;;14.10;99.90;;;;;;5007643;28;20053;-69
2022/05/24 00:08:58;;;;;;;0.08;0.08;;;14.10;99.90;;;;;;5007847;28;20552;-69
2022/05/24 00:11:23;;;;;;;0.10;0.10;;;14.00;99.90;;;;;;5008596;28;20607;-69
2022/05/24 00:13:49;;;;;;;0.20;0.20;;;14.00;99.90;;;;;;5018245;28;20048;-69
2022/05/24 00:16:15;;;;;;;0.10;0.10;;;14.10;99.90;;;;;;5025600;28;20132;-69
2022/05/24 00:18:40;;;;;;;0.00;0.00;;;14.10;99.90;;;;;;5026418;28;20048;-69
2022/05/24 00:21:06;;;;;;;0.00;0.00;;;14.10;99.90;;;;;;5007681;28;20465;-69
2022/05/24 00:23:33;;;;;;;0.10;0.10;;;14.00;99.90;;;;;;5022923;28;20041;-68
2022/05/24 00:26:05;;;;;;;0.08;0.08;;;14.00;99.90;;;;;;5027062;28;20041;-69
2022/05/24 00:28:34;;;;;;;0.10;0.10;;;14.00;99.90;;;;;;5015520;28;20085;-68
2022/05/24 00:31:00;;;;;;;0.10;0.10;;;13.90;99.90;;;;;;5007696;28;20056;-69
2022/05/24 00:33:26;;;;;;;0.63;0.63;;;14.00;99.90;;;;;;5022351;28;20064;-69
2022/05/24 00:35:53;;;;;;;0.10;0.10;;;13.90;99.90;;;;;;5014013;28;20397;-68
2022/05/24 00:38:26;;;;;;;0.03;0.03;;;13.80;99.90;;;;;;5006677;28;20057;-68
2022/05/24 00:41:02;;;;;;;;;;;13.80;99.90;;;;;;5020249;28;20383;-69
2022/05/24 00:43:39;;;;;;;0.10;0.10;;;13.80;99.90;;;;;;5006265;28;19922;-69
2022/05/24 00:46:24;;;;;;;0.10;0.10;;;13.70;99.90;;;;;;5021916;28;20096;-69
2022/05/24 00:48:55;;;;;;;0.73;0.35;;;13.70;99.90;;;;;;5021543;28;20160;-68
2022/05/24 00:51:32;;;;;;;0.10;0.10;;;13.70;99.90;;;;;;5020971;28;20050;-69
2022/05/24 00:53:58;;;;;;;0.40;0.25;;;13.70;99.90;;;;;;5016224;28;20050;-69
2022/05/24 00:56:49;;;;;;;0.10;0.10;;;13.70;99.90;;;;;;5006803;28;20488;-68
2022/05/24 00:59:39;;;;;;;0.65;0.55;;;13.70;99.90;;;;;;5006251;28;20413;-68
2022/05/24 01:02:05;;;;;;;0.00;0.00;;;13.70;99.90;;;;;;5023978;28;20091;-68
2022/05/24 01:04:31;;;;;;;0.05;0.05;;;13.70;99.90;;;;;;5017166;28;20038;-68
2022/05/24 01:06:57;;;;;;;0.05;0.05;;;13.70;99.90;;;;;;5006867;28;20500;-68
2022/05/24 01:09:28;;;;;;;0.13;0.13;;;13.80;99.90;;;;;;5023723;28;20514;-68
2022/05/24 01:11:59;;;;;;;0.20;0.20;;;13.70;99.90;;;;;;5017642;28;20049;-68
2022/05/24 01:14:26;;;;;;;0.10;0.10;;;13.80;99.90;;;;;;5015950;28;20049;-69
2022/05/24 01:16:52;;;;;;;0.10;0.10;;;13.70;99.90;;;;;;5027047;28;20060;-68
2022/05/24 01:19:30;;;;;;;0.10;0.10;;;13.80;99.90;;;;;;5021415;28;20049;-68
2022/05/24 01:22:02;;;;;;;0.10;0.10;;;13.80;99.90;;;;;;5012312;28;20053;-68
2022/05/24 01:24:39;;;;;;;0.10;0.10;;;13.80;99.90;;;;;;5017778;28;20550;-69
2022/05/24 01:27:05;;;;;;;0.35;0.35;;;13.90;99.90;;;;;;5013694;28;20054;-68
2022/05/24 01:29:31;;;;;;;0.10;0.10;;;13.90;99.90;;;;;;5013174;28;20034;-68
2022/05/24 01:37:29;;;;;;;0.10;0.10;;;13.90;99.90;;;;;;5011599;28;20049;-68
2022/05/24 01:39:57;;;;;;;0.28;0.28;;;14.00;99.90;;;;;;5026378;28;20038;-68
2022/05/24 01:42:24;;;;;;;2.35;1.08;;;14.00;99.90;;;;;;5011860;28;20054;-68
2022/05/24 01:45:14;;;;;;;0.10;0.10;;;14.00;99.90;;;;;;5011173;28;20516;-68
2022/05/24 01:47:43;;;;;;;0.00;0.00;;;14.00;99.90;;;;;;5022518;28;20045;-68
2022/05/24 01:50:14;;;;;;;0.10;0.10;;;13.90;99.90;;;;;;5011162;28;20057;-68
2022/05/24 01:52:47;;;;;;;0.28;0.28;;;14.00;99.90;;;;;;5017064;28;20133;-68
2022/05/24 01:55:36;;;;;;;0.47;0.47;;;14.00;99.90;;;;;;5019710;28;20125;-68
2022/05/24 01:58:08;;;;;;;0.15;0.15;;;14.00;99.90;;;;;;5018741;28;20050;-68
2022/05/24 02:00:33;;;;;;;0.10;0.10;;;14.10;99.90;;;;;;5012772;28;20072;-68
2022/05/24 02:02:59;;;;;;;0.17;0.17;;;14.10;99.90;;;;;;5010479;28;20085;-68
2022/05/24 02:05:33;;;;;;;1.50;1.40;;;14.10;99.90;;;;;;5016089;28;20049;-68
2022/05/24 02:07:59;;;;;;;0.30;0.30;;;14.10;99.90;;;;;;5026992;28;20045;-68
2022/05/24 02:10:27;;;;;;;0.38;0.38;;;14.10;99.90;;;;;;5008891;28;20046;-68
2022/05/24 02:12:59;;;;;;;0.20;0.20;;;14.10;99.90;;;;;;5023137;28;20128;-68
2022/05/24 02:15:29;;;;;;;0.10;0.10;;;14.10;99.90;;;;;;5017220;28;20129;-68
2022/05/24 02:18:07;;;;;;;0.05;0.05;;;14.10;99.90;;;;;;5028656;28;20085;-68
2022/05/24 02:20:38;;;;;;;0.35;0.35;;;14.10;99.90;;;;;;5027911;28;20044;-68
2022/05/24 02:23:04;;;;;;;0.10;0.10;;;14.20;99.90;;;;;;5020025;28;20045;-68
2022/05/24 02:25:57;;;;;;;0.10;0.10;;;14.20;99.90;;;;;;5011767;28;20060;-69
2022/05/24 02:28:29;;;;;;;0.10;0.10;;;14.20;99.90;;;;;;5011266;28;20128;-68
2022/05/24 02:31:08;;;;;;;0.03;0.03;;;14.20;99.90;;;;;;5028600;28;20060;-68
2022/05/24 02:33:34;;;;;;;0.47;0.47;;;14.20;99.90;;;;;;5029097;28;20041;-69
2022/05/24 02:36:01;;;;;;;0.30;0.30;;;14.20;99.90;;;;;;5029590;28;20373;-69
2022/05/24 02:38:26;;;;;;;4.85;0.75;;;14.20;99.90;;;;;;5028982;28;20033;-68
2022/05/24 02:43:37;;;;;;;0.13;0.13;;;14.20;99.90;;;;;;5008578;28;20045;-68
2022/05/24 02:46:03;;;;;;;0.28;0.25;;;14.20;99.90;;;;;;5010329;28;20084;-68
2022/05/24 02:48:28;;;;;;;0.60;0.60;;;14.20;99.90;;;;;;5017649;28;20750;-68
2022/05/24 02:50:54;;;;;;;0.22;0.22;;;14.20;99.90;;;;;;5028496;28;20048;-68
2022/05/24 02:53:20;;;;;;;0.45;0.45;;;14.20;99.90;;;;;;5023983;28;20069;-68
2022/05/24 02:55:46;;;;;;;0.43;0.43;;;14.20;99.90;;;;;;5011436;28;20048;-68
2022/05/24 02:58:12;;;;;;;0.20;0.20;;;14.20;99.90;;;;;;5007997;28;20042;-68
2022/05/24 03:00:37;;;;;;;2.10;0.85;;;14.20;99.90;;;;;;5013433;28;20724;-69
2022/05/24 03:03:03;;;;;;;3.15;0.73;;;14.10;99.90;;;;;;5023452;28;20149;-69
2022/05/24 03:05:29;;;;;;;0.20;0.20;;;14.20;99.90;;;;;;5008934;28;20054;-69
2022/05/24 03:10:40;;;;;;;0.20;0.20;;;14.10;99.90;;;;;;5013008;28;20885;-69
2022/05/24 03:15:51;;;;;;;0.20;0.20;;;14.20;99.90;;;;;;5009896;28;20057;-69
2022/05/24 03:18:18;;;;;;;0.10;0.10;;;14.20;99.90;;;;;;5008926;28;20050;-69
2022/05/24 03:20:44;;;;;;;0.30;0.30;;;14.20;99.90;;;;;;5022933;28;20056;-69
2022/05/24 03:23:11;;;;;;;0.45;0.45;;;14.20;99.90;;;;;;5016722;28;20053;-69
2022/05/24 03:25:36;;;;;;;0.30;0.30;;;14.20;99.90;;;;;;5027169;28;20413;-69
2022/05/24 03:28:04;;;;;;;0.05;0.05;;;14.20;99.90;;;;;;5022767;28;20050;-69
2022/05/24 03:30:32;;;;;;;0.30;0.30;;;14.20;99.90;;;;;;5010519;28;20042;-69
2022/05/24 03:32:57;;;;;;;0.20;0.20;;;14.10;99.90;;;;;;5025330;28;20045;-69
2022/05/24 03:35:24;;;;;;;0.47;0.47;;;14.10;99.90;;;;;;5018303;28;20049;-69
2022/05/24 03:37:50;;;;;;;0.75;0.30;;;14.10;99.90;;;;;;5009957;28;20060;-69
2022/05/24 03:40:16;;;;;;;0.50;0.40;;;14.10;99.90;;;;;;5024817;28;20121;-69
2022/05/24 03:42:42;;;;;;;0.73;0.73;;;14.10;99.90;;;;;;5027349;28;20048;-69
2022/05/24 03:45:09;;;;;;;0.10;0.10;;;14.10;99.90;;;;;;5015590;28;20050;-69
2022/05/24 03:47:37;;;;;;;0.10;0.10;;;14.10;99.90;;;;;;5012944;28;20497;-69
2022/05/24 03:50:07;;;;;;;0.20;0.20;;;14.10;99.90;;;;;;5027410;28;20124;-68
2022/05/24 03:52:32;;;;;;;0.10;0.10;;;14.10;99.90;;;;;;5022564;28;20095;-69
2022/05/24 03:54:58;;;;;;;0.10;0.10;;;14.10;99.90;;;;;;5027599;28;20049;-69
2022/05/24 04:00:09;;;;;;;0.55;0.55;;;14.10;99.90;;;;;;5024611;28;20045;-69
2022/05/24 04:02:35;;;;;;;0.57;0.52;;;14.10;99.90;;;;;;5017131;28;20104;-69
2022/05/24 04:05:01;;;;;;;0.03;0.03;;;14.00;99.90;;;;;;5014130;28;20053;-69
2022/05/24 04:07:26;;;;;;;0.10;0.10;;;14.00;99.90;;;;;;5027945;28;20128;-69
2022/05/24 04:09:52;;;;;;;0.10;0.10;;;14.00;99.90;;;;;;5020896;28;20046;-69
2022/05/24 04:12:17;;;;;;;0.00;0.00;;;13.90;99.90;;;;;;5013832;28;20552;-69
2022/05/24 04:14:43;;;;;;;0.10;0.10;;;13.90;99.90;;;;;;5011082;28;20091;-69
2022/05/24 04:17:08;;;;;;;0.13;0.13;;;13.90;99.90;;;;;;5017043;28;20388;-69
2022/05/24 04:19:34;;;;;;;0.10;0.10;;;13.90;99.90;;;;;;5022997;28;20025;-69
2022/05/24 04:21:59;;;;;;;0.17;0.17;;;13.80;99.90;;;;;;5017137;28;20057;-69
2022/05/24 04:24:25;;;;;;;0.57;0.57;;;13.80;99.90;;;;;;5008664;28;20065;-69
2022/05/24 04:26:50;;;;;;;0.08;0.08;;;13.80;99.90;;;;;;5009239;28;20042;-69
2022/05/24 04:29:16;;;;;;;0.13;0.13;;;13.80;99.90;;;;;;5007376;28;20046;-69
2022/05/24 04:31:42;;;;;;;0.45;0.45;;;13.80;99.90;;;;;;5020996;28;20551;-69
2022/05/24 04:34:07;;;;;;;0.10;0.10;;;13.80;99.90;;;;;;5011841;28;20493;-69
2022/05/24 04:36:33;;;;;;;0.52;0.52;;;13.80;99.90;;;;;;5023727;28;20136;-69
2022/05/24 04:38:59;;;;;;;0.30;0.30;;;13.80;99.90;;;;;;5027615;28;20049;-69
2022/05/24 04:44:09;;;;;;;0.00;0.00;;;13.80;99.90;;;;;;5008056;28;20057;-69
2022/05/24 04:49:21;;;;;;;1.17;0.63;;;13.80;99.90;;;;;;5021128;28;20061;-69
2022/05/24 04:51:47;;;;;;;0.10;0.10;;;13.70;99.90;;;;;;5024535;28;20045;-69
2022/05/24 04:54:12;;;;;;;0.47;0.47;;;13.70;99.90;;;;;;5028218;28;20099;-69
2022/05/24 04:56:38;;;;;;;0.10;0.10;;;13.80;99.90;;;;;;5011365;28;20379;-69
2022/05/24 04:59:04;;;;;;;0.10;0.10;;;13.70;99.90;;;;;;5025774;28;20045;-69
2022/05/24 05:01:29;;;;;;;0.52;0.35;;;13.80;99.90;;;;;;5011193;28;20186;-69
2022/05/24 05:03:55;;;;;;;0.10;0.10;;;13.70;99.90;;;;;;5007865;28;20468;-69
2022/05/24 05:06:20;;;;;;;0.40;0.40;;;13.80;99.90;;;;;;5012064;28;20046;-70
2022/05/24 05:08:46;;;;;;;0.00;0.00;;;13.80;99.90;;;;;;5015505;28;20171;-69
2022/05/24 05:11:12;;;;;;;0.30;0.30;;;13.80;99.90;;;;;;5022304;28;20486;-70
2022/05/24 05:13:38;;;;;;;0.38;0.38;;;13.80;99.90;;;;;;5014061;28;20359;-70
2022/05/24 05:16:03;;;;;;;0.08;0.08;;;13.90;99.90;;;;;;5031827;28;20493;-69
2022/05/24 05:18:29;;;;;;;0.30;0.30;;;13.90;99.90;;;;;;5012873;28;20074;-69
2022/05/24 05:20:55;;;;;;;0.10;0.10;;;13.90;99.90;;;;;;5011067;28;20054;-69
2022/05/24 05:23:20;;;;;;;0.10;0.10;;;13.90;99.90;;;;;;5020774;28;20048;-69
2022/05/24 05:25:47;;;;;;;1.20;1.15;;;14.00;99.90;;;;;;5017133;28;20125;-70
2022/05/24 05:28:14;;;;;;;0.10;0.10;;;14.00;99.90;;;;;;5025960;28;20069;-70
2022/05/24 05:33:24;;;;;;;0.28;0.28;;;14.10;99.90;;;;;;5013197;28;20089;-70
2022/05/24 05:35:50;;;;;;;0.10;0.10;;;14.10;99.90;;;;;;5009899;28;20082;-70
2022/05/24 05:38:15;;;;;;;0.43;0.43;;;14.10;99.90;;;;;;5030117;28;20046;-69
2022/05/24 05:40:41;;;;;;;0.10;0.10;;;14.20;99.90;;;;;;5021693;28;20578;-69
2022/05/24 05:43:07;;;;;;;0.00;0.00;;;14.20;99.90;;;;;;5011276;28;20041;-69
2022/05/24 05:45:33;;;;;;;4.70;0.73;;;14.20;99.90;;;;;;5011261;28;20038;-69
2022/05/24 05:47:58;;;;;;;0.10;0.10;;;14.20;99.90;;;;;;5022814;28;20386;-68
2022/05/24 05:50:24;;;;;;;0.10;0.10;;;14.30;99.90;;;;;;5024718;28;20045;-69
2022/05/24 05:52:50;;;;;;;0.10;0.10;;;14.30;99.90;;;;;;5012752;28;20046;-69
2022/05/24 05:55:16;;;;;;;0.00;0.00;;;14.30;99.90;;;;;;5014292;28;20045;-69
2022/05/24 05:57:42;;;;;;;0.00;0.00;;;14.30;99.90;;;;;;5025233;28;20063;-69
2022/05/24 06:00:08;;;;;;;1.23;1.13;;;14.30;99.90;;;;;;5019041;28;20034;-68
2022/05/24 06:02:35;;;;;;;0.45;0.20;;;14.20;99.90;;;;;;5028961;28;20060;-69
2022/05/24 06:05:01;;;;;;;0.10;0.10;;;14.30;99.90;;;;;;5030900;28;20084;-68
2022/05/24 06:07:27;;;;;;;0.32;0.25;;;14.20;99.90;;;;;;5010653;28;20046;-68
2022/05/24 06:09:53;;;;;;;0.10;0.10;;;14.30;99.90;;;;;;5029587;28;20040;-68
2022/05/24 06:12:19;;;;;;;0.35;0.35;;;14.20;99.90;;;;;;5018421;28;20378;-69
2022/05/24 06:14:45;;;;;;;0.10;0.10;;;14.10;99.90;;;;;;5026041;28;20099;-68
2022/05/24 06:17:11;;;;;;;0.10;0.10;;;14.10;99.90;;;;;;5014383;28;20047;-68
2022/05/24 06:19:37;;;;;;;0.20;0.20;;;14.20;99.90;;;;;;5008882;28;20038;-68
2022/05/24 06:22:03;;;;;;;0.00;0.00;;;14.20;99.90;;;;;;5017870;28;20610;-68
2022/05/24 06:24:29;;;;;;;1.55;0.98;;;14.20;99.90;;;;;;5010052;28;20050;-68
2022/05/24 06:26:56;;;;;;;0.03;0.03;;;14.20;99.90;;;;;;5025149;28;20060;-68
2022/05/24 06:29:23;;;;;;;6.72;1.38;;;14.20;99.90;;;;;;5017819;28;20046;-69
2022/05/24 06:31:48;;;;;;;0.10;0.10;;;14.30;99.90;;;;;;5015469;28;20497;-69
2022/05/24 06:34:14;;;;;;;0.10;0.10;;;14.30;99.90;;;;;;5009610;28;20053;-69
2022/05/24 06:36:40;;;;;;;0.10;0.10;;;14.30;99.90;;;;;;5022586;28;20057;-69
2022/05/24 06:39:05;;;;;;;0.10;0.10;;;14.40;99.90;;;;;;5022252;28;20188;-69
2022/05/24 06:41:31;;;;;;;0.10;0.10;;;14.40;99.90;;;;;;5008620;28;20050;-69
2022/05/24 06:43:56;;;;;;;0.10;0.10;;;14.50;99.90;;;;;;5018797;28;20049;-69
2022/05/24 06:46:22;;;;;;;0.00;0.00;;;14.40;99.90;;;;;;5028519;28;20500;-69
2022/05/24 06:48:48;;;;;;;0.03;0.03;;;14.50;99.90;;;;;;5019790;28;20482;-69
2022/05/24 06:51:16;;;;;;;0.20;0.20;;;14.50;99.90;;;;;;5019463;28;20084;-69
2022/05/24 06:53:44;;;;;;;0.10;0.10;;;14.50;99.90;;;;;;5019237;28;20042;-69
2022/05/24 06:56:10;;;;;;;3.65;0.80;;;14.50;99.90;;;;;;5017031;28;20471;-69
2022/05/24 06:58:36;;;;;;;4.18;1.48;;;14.50;99.90;;;;;;5025908;28;20056;-68
2022/05/24 07:03:51;;;;;;;0.22;0.22;;;14.40;99.90;;;;;;5024304;28;20413;-69
2022/05/24 07:06:17;;;;;;;0.00;0.00;;;14.40;99.90;;;;;;5026739;28;20054;-68
2022/05/24 07:08:44;;;;;;;0.52;0.52;;;14.30;99.90;;;;;;5023891;28;20127;-69
2022/05/24 07:11:11;;;;;;;0.68;0.68;;;14.40;99.90;;;;;;5023669;28;20060;-69
2022/05/24 07:13:38;;;;;;;0.10;0.10;;;14.40;99.90;;;;;;5028623;28;20041;-69
2022/05/24 07:16:04;;;;;;;0.10;0.10;;;14.40;99.90;;;;;;5015865;28;20046;-69
2022/05/24 07:18:29;;;;;;;0.10;0.10;;;14.40;99.90;;;;;;5006989;28;20449;-69
2022/05/24 07:20:55;;;;;;;0.47;0.47;;;14.40;99.90;;;;;;5023954;28;20053;-69
2022/05/24 07:23:24;;;;;;;0.38;0.38;;;14.50;99.90;;;;;;5007117;28;20042;-69
2022/05/24 07:25:51;;;;;;;0.10;0.10;;;14.40;99.90;;;;;;5009183;28;20187;-69
2022/05/24 07:28:17;;;;;;;2.60;1.05;;;14.50;99.90;;;;;;5012155;28;20046;-68
2022/05/24 07:30:44;;;;;;;0.22;0.22;;;14.50;99.90;;;;;;5015766;28;20061;-68
2022/05/24 07:33:10;;;;;;;0.70;0.70;;;14.60;99.90;;;;;;5025212;28;20050;-69
2022/05/24 07:35:37;;;;;;;0.03;0.03;;;14.50;99.90;;;;;;5014101;28;20127;-69
2022/05/24 07:38:09;;;;;;;0.00;0.00;;;14.50;99.90;;;;;;5018248;28;20547;-69
2022/05/24 07:46:09;;;;;;;0.10;0.10;;;14.60;99.90;;;;;;5022924;28;20080;-70
2022/05/24 07:48:35;;;;;;;0.10;0.10;;;14.70;99.90;;;;;;5012625;28;20848;-70
2022/05/24 07:51:02;;;;;;;0.17;0.17;;;14.70;99.90;;;;;;5009368;28;20386;-70
2022/05/24 07:53:28;;;;;;;0.10;0.10;;;14.80;99.90;;;;;;5007127;28;20053;-70
2022/05/24 07:55:55;;;;;;;0.63;0.63;;;14.70;99.90;;;;;;5012057;28;20037;-69
2022/05/24 07:58:21;;;;;;;0.10;0.10;;;14.70;99.90;;;;;;5025903;28;20065;-70
2022/05/24 08:00:47;;;;;;;0.05;0.05;;;14.70;99.90;;;;;;5007439;28;20121;-70
2022/05/24 08:03:13;;;;;;;0.10;0.10;;;14.70;99.90;;;;;;5008343;28;20577;-69
2022/05/24 08:05:39;;;;;;;0.10;0.10;;;14.60;99.90;;;;;;5017984;28;20061;-70
2022/05/24 08:08:06;;;;;;;0.35;0.35;;;14.60;99.90;;;;;;5008212;28;20635;-70
2022/05/24 08:10:34;;;;;;;1.02;1.02;;;14.60;99.90;;;;;;5007626;28;20072;-70
2022/05/24 08:13:03;;;;;;;0.30;0.30;;;14.70;99.90;;;;;;5020204;28;20045;-70
2022/05/24 08:15:30;;;;;;;0.10;0.10;;;14.70;99.90;;;;;;5010172;28;20038;-70
2022/05/24 08:17:55;;;;;;;0.35;0.35;;;14.80;99.90;;;;;;5007670;28;20068;-70
2022/05/24 08:20:21;;;;;;;0.10;0.10;;;14.70;99.90;;;;;;5009082;28;20046;-70
2022/05/24 08:22:47;;;;;;;0.25;0.25;;;14.70;99.90;;;;;;5009711;28;20037;-70
2022/05/24 08:25:13;;;;;;;0.10;0.10;;;14.60;99.90;;;;;;5024306;28;20121;-69
2022/05/24 08:27:39;;;;;;;0.20;0.20;;;14.50;99.90;;;;;;5018762;28;21167;-68
2022/05/24 08:30:06;;;;;;;0.10;0.10;;;14.30;99.90;;;;;;5013223;28;20046;-67
2022/05/24 08:32:32;;;;;;;0.28;0.28;;;14.30;99.90;;;;;;5014574;28;20049;-69
2022/05/24 08:34:58;;;;;;;0.10;0.10;;;14.10;99.90;;;;;;5007883;28;20779;-67
2022/05/24 08:37:23;;;;;;;0.20;0.20;;;14.00;99.90;;;;;;5008932;28;20135;-68
2022/05/24 08:39:49;;;;;;;0.40;0.40;;;13.90;99.90;;;;;;5008579;28;20813;-68
2022/05/24 08:42:27;;;;;;;6.20;1.38;;;13.80;99.90;;;;;;5012071;28;20045;-68
2022/05/24 08:48:25;;;;;;;0.05;0.05;;;13.70;99.90;;;;;;5034075;28;20057;-68
2022/05/24 08:50:57;;;;;;;0.10;0.10;;;13.70;99.90;;;;;;5018728;28;20417;-67
2022/05/24 08:53:33;;;;;;;0.10;0.10;;;13.80;99.90;;;;;;5022685;28;20060;-67
2022/05/24 08:56:02;;;;;;;0.20;0.20;;;13.80;99.90;;;;;;5027489;28;20108;-67
2022/05/24 08:58:36;;;;;;;0.15;0.15;;;13.90;99.90;;;;;;5019893;28;20112;-67
2022/05/24 09:01:04;;;;;;;;;;;13.90;99.90;;;;;;5024036;28;20077;-67
2022/05/24 09:03:30;;;;;;;0.20;0.20;;;13.90;99.90;;;;;;5030261;28;19921;-68
2022/05/24 09:06:08;;;;;;;0.20;0.20;;;13.90;99.90;;;;;;5024305;28;20045;-68
2022/05/24 09:09:08;;;;;;;0.10;0.10;;;13.90;99.90;;;;;;5019930;28;20129;-68
2022/05/24 09:11:39;;;;;;;0.10;0.10;;;13.90;99.90;;;;;;5011033;28;20040;-68
2022/05/24 09:14:42;;;;;;;0.10;0.10;;;14.10;99.90;;;;;;5012381;28;20045;-68
2022/05/24 09:17:28;;;;;;;0.55;0.55;;;14.10;99.90;;;;;;5011373;28;20649;-68
2022/05/24 09:19:53;;;;;;;0.17;0.17;;;14.30;99.90;;;;;;5012224;28;20128;-68
2022/05/24 09:22:21;;;;;;;0.10;0.10;;;14.40;99.90;;;;;;5014479;28;20129;-68
2022/05/24 09:24:53;;;;;;;0.10;0.10;;;14.40;99.90;;;;;;5014364;28;20045;-68
2022/05/24 09:27:22;;;;;;;0.47;0.47;;;14.60;99.90;;;;;;5025146;28;20498;-69
2022/05/24 09:30:03;;;;;;;0.00;0.00;;;14.60;99.90;;;;;;5018613;28;20045;-68
2022/05/24 09:32:43;;;;;;;1.67;1.58;;;14.70;99.90;;;;;;5018342;28;20501;-68
2022/05/24 09:35:09;;;;;;;0.20;0.20;;;14.80;99.90;;;;;;5010260;28;20046;-68
2022/05/24 09:37:35;;;;;;;0.10;0.10;;;14.90;99.90;;;;;;5011412;28;20104;-69
2022/05/24 09:40:20;;;;;;;1.55;1.17;;;15.30;99.90;;;;;;5008535;28;20401;-69
2022/05/24 09:42:46;;;;;;;0.10;0.10;;;15.90;99.90;;;;;;5012024;28;20092;-68
2022/05/24 09:45:22;;;;;;;1.85;0.68;;;16.30;99.90;;;;;;5020635;28;20049;-68
2022/05/24 09:47:47;;;;;;;0.10;0.10;;;16.60;99.90;;;;;;5030129;28;20421;-68
2022/05/24 09:50:29;;;;;;;0.30;0.30;;;16.50;99.90;;;;;;5027282;28;20042;-67
2022/05/24 09:53:12;;;;;;;0.75;0.75;;;15.80;99.90;;;;;;5026013;28;20183;-66
2022/05/24 09:55:59;;;;;;;0.10;0.10;;;15.40;99.90;;;;;;5030144;28;20751;-67
2022/05/24 09:58:34;;;;;;;0.05;0.05;;;15.10;99.90;;;;;;5031169;28;20049;-67
2022/05/24 10:01:13;;;;;;;0.00;0.00;;;15.00;99.90;;;;;;5016934;28;20074;-66
2022/05/24 10:03:47;;;;;;;0.00;0.00;;;15.10;99.90;;;;;;5023632;28;20561;-66
2022/05/24 10:06:26;;;;;;;0.52;0.52;;;15.40;99.90;;;;;;5014861;28;20511;-67
2022/05/24 10:08:51;;;;;;;1.65;1.55;;;15.40;99.90;;;;;;5011455;28;20074;-67
2022/05/24 10:11:41;;;;;;;0.10;0.10;;;15.50;99.90;;;;;;5024227;28;20092;-67
2022/05/24 10:14:30;;;;;;;0.30;0.30;;;15.40;99.90;;;;;;5022341;28;20404;-67
2022/05/24 10:17:12;;;;;;;0.10;0.10;;;15.40;99.90;;;;;;5019765;28;20046;-67
2022/05/24 10:19:54;;;;;;;0.10;0.10;;;15.80;99.90;;;;;;5018334;28;20056;-67
2022/05/24 10:22:43;;;;;;;1.00;0.50;;;16.40;99.90;;;;;;5009630;28;20492;-67
2022/05/24 10:25:26;;;;;;;0.10;0.10;;;16.30;99.90;;;;;;5011554;28;20034;-67
2022/05/24 10:28:17;;;;;;;0.60;0.53;;;16.00;99.90;;;;;;5010184;28;20054;-67
2022/05/24 10:31:10;;;;;;;0.00;0.00;;;15.60;99.90;;;;;;5028241;28;20068;-67
2022/05/24 10:40:00;;;;;;;0.10;0.10;;;15.30;99.90;;;;;;5014069;28;20056;-67
2022/05/24 10:42:54;;;;;;;0.20;0.20;;;15.40;99.90;;;;;;5009096;28;20492;-67
2022/05/24 10:45:49;;;;;;;0.00;0.00;;;15.60;99.90;;;;;;5016184;28;20037;-67
2022/05/24 10:48:21;;;;;;;0.25;0.25;;;15.80;99.90;;;;;;5022430;28;20087;-67
2022/05/24 10:50:54;;;;;;;0.00;0.00;;;15.80;99.90;;;;;;5016421;28;20093;-67
2022/05/24 10:53:33;;;;;;;0.10;0.10;;;15.90;99.90;;;;;;5020524;28;20042;-67
2022/05/24 10:56:43;;;;;;;0.20;0.20;;;15.90;99.90;;;;;;5027540;28;20516;-68
2022/05/24 10:59:36;;;;;;;0.20;0.20;;;16.20;99.90;;;;;;5027356;28;20049;-67
2022/05/24 11:02:29;;;;;;;0.10;0.10;;;16.10;99.90;;;;;;5025429;28;20416;-67
2022/05/24 11:05:08;;;;;;;0.10;0.10;;;16.10;99.90;;;;;;5015269;28;20562;-67
2022/05/24 11:07:36;;;;;;;0.10;0.10;;;16.00;99.90;;;;;;5015846;28;20093;-68
2022/05/24 11:10:24;;;;;;;0.10;0.10;;;15.70;99.90;;;;;;5025271;28;20049;-68
2022/05/24 11:12:54;;;;;;;0.00;0.00;;;15.30;99.90;;;;;;5012649;28;20627;-68
2022/05/24 11:15:38;;;;;;;0.20;0.20;;;15.10;99.90;;;;;;5023912;28;20057;-68
2022/05/24 11:18:29;;;;;;;0.00;0.00;;;15.00;99.90;;;;;;5019736;28;20049;-68
2022/05/24 11:21:29;;;;;;;0.10;0.10;;;14.90;99.90;;;;;;5009218;28;20050;-68
2022/05/24 11:24:02;;;;;;;0.08;0.08;;;15.10;99.90;;;;;;5017398;28;20049;-68
2022/05/24 11:26:32;;;;;;;1.55;0.57;;;15.70;99.90;;;;;;5029091;28;20038;-68
2022/05/24 11:29:13;;;;;;;0.10;0.10;;;15.70;99.90;;;;;;5027829;28;20107;-68
2022/05/24 11:31:49;;;;;;;0.00;0.00;;;15.60;99.90;;;;;;5022090;28;20104;-68
2022/05/24 11:34:26;;;;;;;0.10;0.10;;;15.70;99.90;;;;;;5007904;28;20081;-68
2022/05/24 11:37:20;;;;;;;0.20;0.20;;;16.00;99.90;;;;;;5009995;28;20436;-69
2022/05/24 11:39:47;;;;;;;0.10;0.10;;;16.30;99.90;;;;;;5008571;28;20494;-68
2022/05/24 11:42:21;;;;;;;0.00;0.00;;;16.10;99.90;;;;;;5009475;28;20065;-69
2022/05/24 11:44:48;;;;;;;0.00;0.00;;;15.80;99.90;;;;;;5007932;28;20490;-69
2022/05/24 11:47:35;;;;;;;0.10;0.10;;;15.60;99.90;;;;;;5011191;28;20053;-68
2022/05/24 11:50:30;;;;;;;0.10;0.10;;;15.40;99.90;;;;;;5025834;28;20045;-67
2022/05/24 11:53:01;;;;;;;0.00;0.00;;;15.10;99.90;;;;;;5024351;28;20060;-68
2022/05/24 11:55:42;;;;;;;0.00;0.00;;;15.30;99.90;;;;;;5027710;28;20484;-68
2022/05/24 11:58:19;;;;;;;0.00;0.00;;;15.30;99.90;;;;;;5026396;28;20137;-68
2022/05/24 12:01:07;;;;;;;1.35;1.25;;;15.50;99.90;;;;;;5008724;28;20065;-68
2022/05/24 12:09:22;;;;;;;0.08;0.08;;;16.70;99.90;;;;;;5008461;28;20053;-69
2022/05/24 12:11:48;;;;;;;0.00;0.00;;;17.00;99.90;;;;;;5015353;28;20038;-68
2022/05/24 12:14:38;;;;;;;0.10;0.10;;;17.40;99.90;;;;;;5019842;28;20124;-68
2022/05/24 12:17:11;;;;;;;0.10;0.10;;;17.70;99.90;;;;;;5026221;28;20050;-69
2022/05/24 12:19:43;;;;;;;;;;;17.80;99.90;;;;;;5022863;28;20052;-67
2022/05/24 12:22:41;;;;;;;0.00;0.00;;;18.40;99.90;;;;;;5016892;28;19925;-67
2022/05/24 12:25:06;;;;;;;0.10;0.10;;;18.00;99.90;;;;;;5012700;28;20460;-67
2022/05/24 12:27:35;;;;;;;0.40;0.40;;;18.30;99.90;;;;;;5013664;28;20046;-67
2022/05/24 12:30:29;;;;;;;0.00;0.00;;;18.30;99.90;;;;;;5012187;28;20489;-68
2022/05/24 12:32:56;;;;;;;2.40;0.65;;;18.50;99.90;;;;;;5019820;28;20045;-67
2022/05/24 12:35:22;;;;;;;0.05;0.05;;;18.70;99.90;;;;;;5012791;28;20081;-68
2022/05/24 12:37:54;;;;;;;0.38;0.38;;;18.80;99.90;;;;;;5011987;28;20045;-68
2022/05/24 12:40:25;;;;;;;0.10;0.10;;;18.50;99.90;;;;;;5024482;28;20045;-69
2022/05/24 12:43:02;;;;;;;0.00;0.00;;;18.50;99.90;;;;;;5024763;28;20505;-68
2022/05/24 12:45:34;;;;;;;0.10;0.10;;;18.90;99.90;;;;;;5024811;28;20045;-69
2022/05/24 12:48:00;;;;;;;1.27;0.88;;;18.50;99.90;;;;;;5019879;28;20744;-70
2022/05/24 12:50:39;;;;;;;0.20;0.20;;;18.10;99.90;;;;;;5009192;28;20073;-68
2022/05/24 12:53:08;;;;;;;0.30;0.30;;;17.70;99.90;;;;;;5021428;28;20473;-68
2022/05/24 12:55:55;;;;;;;0.20;0.20;;;17.80;99.90;;;;;;5012111;28;20095;-68
2022/05/24 12:58:26;;;;;;;0.17;0.17;;;18.20;99.90;;;;;;5022017;28;20053;-68
2022/05/24 13:00:51;;;;;;;0.10;0.10;;;18.40;99.90;;;;;;5018529;28;20494;-67
2022/05/24 13:03:22;;;;;;;0.10;0.10;;;18.10;99.90;;;;;;5010563;28;20463;-68
2022/05/24 13:05:53;;;;;;;0.10;0.10;;;18.40;99.90;;;;;;5022336;28;20050;-68
2022/05/24 13:08:19;;;;;;;0.65;0.65;;;18.10;99.90;;;;;;5025159;28;20137;-68
2022/05/24 13:10:45;;;;;;;0.03;0.03;;;17.80;99.90;;;;;;5023421;28;20655;-68
2022/05/24 13:13:20;;;;;;;0.10;0.10;;;17.70;99.90;;;;;;5021630;28;20098;-68
2022/05/24 13:15:59;;;;;;;0.10;0.10;;;17.60;99.90;;;;;;5011895;28;20049;-68
2022/05/24 13:18:28;;;;;;;0.13;0.13;;;17.70;99.90;;;;;;5020489;28;20037;-68
2022/05/24 13:20:56;;;;;;;0.00;0.00;;;17.80;99.90;;;;;;5026224;28;20045;-68
2022/05/24 13:23:34;;;;;;;0.00;0.00;;;18.30;99.90;;;;;;5015093;28;20053;-69
2022/05/24 13:26:06;;;;;;;0.05;0.05;;;18.20;99.90;;;;;;5022644;28;20090;-68
2022/05/24 13:28:35;;;;;;;0.10;0.10;;;18.10;99.90;;;;;;5023204;28;20060;-68
2022/05/24 13:34:11;;;;;;;0.25;0.25;;;18.10;99.90;;;;;;5020642;28;20045;-68
2022/05/24 13:36:48;;;;;;;0.10;0.10;;;17.50;99.90;;;;;;5031312;28;20136;-67
2022/05/24 13:39:39;;;;;;;0.10;0.10;;;17.10;99.90;;;;;;5019955;28;20481;-68
2022/05/24 13:42:31;;;;;;;5.50;1.65;;;17.00;99.90;;;;;;5011915;28;20096;-67
2022/05/24 13:45:19;;;;;;;0.20;0.17;;;17.70;99.90;;;;;;5011932;28;20085;-68
2022/05/24 13:47:50;;;;;;;0.75;0.75;;;18.00;99.90;;;;;;5019655;28;20168;-67
2022/05/24 13:50:35;;;;;;;0.75;0.75;;;17.60;99.90;;;;;;5022408;28;20596;-68
2022/05/24 13:53:27;;;;;;;0.10;0.10;;;17.40;99.90;;;;;;5027891;28;20053;-67
2022/05/24 13:55:55;;;;;;;0.00;0.00;;;17.20;99.90;;;;;;5015653;28;20133;-67
2022/05/24 13:58:35;;;;;;;0.00;0.00;;;17.10;99.90;;;;;;5014945;28;20180;-69
2022/05/24 14:01:08;;;;;;;0.00;0.00;;;17.00;99.90;;;;;;5022557;28;20148;-67